createdAt,value
2023-04-21T00:00:55.760Z,99.90
2023-04-21T00:03:24.324Z,99.90
2023-04-21T00:05:52.162Z,99.90
2023-04-21T00:10:49.271Z,99.90
2023-04-21T00:13:16.062Z,99.90
2023-04-21T00:15:42.815Z,99.90
2023-04-21T00:18:09.851Z,99.90
2023-04-21T00:25:31.015Z,99.90
2023-04-21T00:27:57.837Z,99.90
2023-04-21T00:30:24.683Z,99.90
2023-04-21T00:35:18.773Z,99.90
2023-04-21T00:40:13.537Z,99.90
2023-04-21T00:45:07.829Z,99.90
2023-04-21T00:50:04.089Z,99.90
2023-04-21T00:52:31.357Z,99.90
2023-04-21T00:54:59.104Z,99.90
2023-04-21T00:57:27.110Z,99.90
2023-04-21T00:59:53.867Z,99.90
2023-04-21T01:02:22.229Z,99.90
2023-04-21T01:04:49.183Z,99.90
2023-04-21T01:07:16.067Z,99.90
2023-04-21T01:09:42.775Z,99.90
2023-04-21T01:12:11.959Z,99.90
2023-04-21T01:14:40.708Z,99.90
2023-04-21T01:17:08.757Z,99.90
2023-04-21T01:19:43.135Z,99.90
2023-04-21T01:22:15.285Z,99.90
2023-04-21T01:24:47.203Z,99.90
2023-04-21T01:27:19.092Z,99.90
2023-04-21T01:29:47.580Z,99.90
2023-04-21T01:32:27.173Z,99.90
2023-04-21T01:34:54.967Z,99.90
2023-04-21T01:37:25.280Z,99.90
2023-04-21T01:39:54.970Z,99.90
2023-04-21T01:42:23.551Z,99.90
2023-04-21T01:44:50.721Z,99.90
2023-04-21T01:47:18.549Z,99.90
2023-04-21T01:49:45.445Z,99.90
2023-04-21T01:52:12.374Z,99.90
2023-04-21T01:54:39.170Z,99.90
2023-04-21T01:57:07.063Z,99.90
2023-04-21T02:02:01.380Z,99.90
2023-04-21T02:06:55.656Z,99.90
2023-04-21T02:09:22.693Z,99.90
2023-04-21T02:11:49.461Z,99.90
2023-04-21T02:14:16.387Z,99.90
2023-04-21T02:16:43.709Z,99.90
2023-04-21T02:24:05.004Z,99.90
2023-04-21T02:26:31.761Z,99.90
2023-04-21T02:28:58.528Z,99.90
2023-04-21T02:31:25.382Z,99.90
2023-04-21T02:33:52.153Z,99.90
2023-04-21T02:36:18.908Z,99.90
2023-04-21T02:43:39.887Z,99.90
2023-04-21T02:46:07.924Z,99.90
2023-04-21T02:48:37.991Z,99.90
2023-04-21T02:51:04.947Z,99.90
2023-04-21T02:53:32.032Z,99.90
2023-04-21T02:55:58.839Z,99.90
2023-04-21T02:58:25.529Z,99.90
2023-04-21T03:03:19.672Z,99.90
2023-04-21T03:05:46.657Z,99.90
2023-04-21T03:08:13.417Z,99.90
2023-04-21T03:10:40.431Z,99.90
2023-04-21T03:13:07.418Z,99.90
2023-04-21T03:15:34.171Z,99.90
2023-04-21T03:18:01.199Z,99.90
2023-04-21T03:20:28.059Z,99.90
2023-04-21T03:25:22.044Z,99.90
2023-04-21T03:30:15.877Z,99.90
2023-04-21T03:32:42.643Z,99.90
2023-04-21T03:37:36.655Z,99.90
2023-04-21T03:40:06.078Z,99.90
2023-04-21T03:42:32.901Z,99.90
2023-04-21T03:45:08.018Z,99.90
2023-04-21T03:47:35.327Z,99.90
2023-04-21T03:50:04.816Z,99.90
2023-04-21T03:52:31.653Z,99.90
2023-04-21T03:54:58.476Z,99.90
2023-04-21T03:57:25.197Z,99.90
2023-04-21T03:59:51.940Z,99.90
2023-04-21T04:02:18.693Z,99.90
2023-04-21T04:04:46.177Z,99.90
2023-04-21T04:07:12.998Z,99.90
2023-04-21T04:09:40.150Z,99.90
2023-04-21T04:12:07.182Z,99.90
2023-04-21T04:14:33.922Z,99.90
2023-04-21T04:17:00.667Z,99.90
2023-04-21T04:19:34.318Z,99.90
2023-04-21T04:22:01.669Z,99.90
2023-04-21T04:24:28.625Z,99.90
2023-04-21T04:26:55.476Z,99.90
2023-04-21T04:29:22.771Z,99.90
2023-04-21T04:31:52.357Z,99.90
2023-04-21T04:34:19.347Z,99.90
2023-04-21T04:36:48.029Z,99.90
2023-04-21T04:39:16.482Z,99.90
2023-04-21T04:41:44.494Z,99.90
2023-04-21T04:44:11.362Z,99.90
2023-04-21T04:46:39.362Z,99.90
2023-04-21T04:49:06.152Z,99.90
2023-04-21T04:51:33.635Z,99.90
2023-04-21T04:54:00.456Z,99.90
2023-04-21T04:56:27.224Z,99.90
2023-04-21T04:58:54.018Z,99.90
2023-04-21T05:01:21.057Z,99.90
2023-04-21T05:03:48.083Z,99.90
2023-04-21T05:06:15.047Z,99.90
2023-04-21T05:08:41.785Z,99.90
2023-04-21T05:11:08.751Z,99.90
2023-04-21T05:13:36.961Z,99.90
2023-04-21T05:16:05.607Z,99.90
2023-04-21T05:18:32.355Z,99.90
2023-04-21T05:20:59.054Z,99.90
2023-04-21T05:23:25.823Z,99.90
2023-04-21T05:25:52.552Z,99.90
2023-04-21T05:28:19.272Z,99.90
2023-04-21T05:30:46.048Z,99.90
2023-04-21T05:33:12.879Z,99.90
2023-04-21T05:38:07.240Z,99.90
2023-04-21T05:40:34.042Z,99.90
2023-04-21T05:43:00.773Z,99.90
2023-04-21T05:45:27.466Z,99.90
2023-04-21T05:47:54.281Z,99.90
2023-04-21T05:50:21.112Z,99.90
2023-04-21T05:52:47.808Z,99.90
2023-04-21T05:55:14.507Z,99.90
2023-04-21T05:57:41.242Z,99.90
2023-04-21T06:00:08.958Z,99.90
2023-04-21T06:02:35.806Z,99.90
2023-04-21T06:05:02.933Z,99.90
2023-04-21T06:07:29.773Z,99.90
2023-04-21T06:09:57.879Z,99.90
2023-04-21T06:12:24.852Z,99.90
2023-04-21T06:14:51.688Z,99.90
2023-04-21T06:17:19.029Z,99.70
2023-04-21T06:19:45.878Z,99.20
2023-04-21T06:22:12.638Z,99.20
2023-04-21T06:24:39.457Z,98.80
2023-04-21T06:27:11.917Z,98.40
2023-04-21T06:29:39.339Z,97.90
2023-04-21T06:34:33.335Z,96.80
2023-04-21T06:37:00.071Z,97.10
2023-04-21T06:39:27.242Z,96.80
2023-04-21T06:41:54.130Z,96.30
2023-04-21T06:44:21.308Z,95.80
2023-04-21T06:46:48.348Z,95.70
2023-04-21T06:49:15.124Z,95.00
2023-04-21T06:51:42.210Z,95.00
2023-04-21T06:54:08.952Z,94.60
2023-04-21T06:56:35.809Z,94.00
2023-04-21T06:59:02.559Z,93.10
2023-04-21T07:01:29.290Z,92.80
2023-04-21T07:03:56.113Z,92.70
2023-04-21T07:06:22.855Z,92.50
2023-04-21T07:08:49.682Z,92.10
2023-04-21T07:11:16.407Z,92.80
2023-04-21T07:13:43.102Z,92.20
2023-04-21T07:16:10.241Z,91.70
2023-04-21T07:18:39.093Z,91.80
2023-04-21T07:21:06.008Z,91.80
2023-04-21T07:23:32.684Z,91.70
2023-04-21T07:25:59.733Z,90.80
2023-04-21T07:28:26.691Z,91.30
2023-04-21T07:30:53.569Z,91.20
2023-04-21T07:33:20.339Z,90.80
2023-04-21T07:35:47.345Z,90.20
2023-04-21T07:38:14.037Z,89.90
2023-04-21T07:40:40.866Z,90.00
2023-04-21T07:43:07.564Z,90.00
2023-04-21T07:45:34.308Z,89.70
2023-04-21T07:48:01.144Z,89.00
2023-04-21T07:50:28.110Z,89.10
2023-04-21T07:52:54.846Z,88.40
2023-04-21T07:55:21.534Z,87.20
2023-04-21T07:57:48.942Z,87.10
2023-04-21T08:00:16.413Z,86.70
2023-04-21T08:02:43.281Z,86.30
2023-04-21T08:05:10.452Z,85.60
2023-04-21T08:07:37.369Z,85.40
2023-04-21T08:10:04.380Z,86.10
2023-04-21T08:12:31.142Z,86.70
2023-04-21T08:14:57.878Z,85.80
2023-04-21T08:17:24.994Z,85.10
2023-04-21T08:19:52.128Z,85.20
2023-04-21T08:22:18.907Z,85.10
2023-04-21T08:24:45.799Z,84.70
2023-04-21T08:27:12.670Z,84.80
2023-04-21T08:29:39.702Z,84.30
2023-04-21T08:32:06.470Z,84.50
2023-04-21T08:34:33.193Z,84.10
2023-04-21T08:36:59.909Z,83.40
2023-04-21T08:39:26.906Z,83.40
2023-04-21T08:41:54.374Z,83.20
2023-04-21T08:44:21.539Z,82.80
2023-04-21T08:46:50.471Z,82.10
2023-04-21T08:49:21.492Z,82.10
2023-04-21T08:51:48.466Z,82.90
2023-04-21T08:54:15.678Z,82.90
2023-04-21T08:56:42.514Z,82.40
2023-04-21T08:59:09.263Z,82.10
2023-04-21T09:02:16.098Z,82.10
2023-04-21T09:04:47.720Z,81.90
2023-04-21T09:07:34.037Z,81.70
2023-04-21T09:10:01.577Z,81.20
2023-04-21T09:12:29.432Z,81.80
2023-04-21T09:14:58.169Z,82.20
2023-04-21T09:17:32.518Z,81.90
2023-04-21T09:20:28.905Z,81.20
2023-04-21T09:22:55.711Z,81.20
2023-04-21T09:25:22.820Z,81.20
2023-04-21T09:27:49.599Z,80.80
2023-04-21T09:30:20.290Z,79.90
2023-04-21T09:32:47.178Z,79.30
2023-04-21T09:35:14.071Z,79.90
2023-04-21T09:37:43.950Z,79.20
2023-04-21T09:40:14.015Z,79.00
2023-04-21T09:45:32.501Z,79.70
2023-04-21T09:48:02.058Z,79.60
2023-04-21T09:53:02.350Z,78.80
2023-04-21T09:55:30.783Z,77.80
2023-04-21T09:58:01.450Z,77.20
2023-04-21T10:00:29.032Z,77.30
2023-04-21T10:02:58.651Z,78.00
2023-04-21T10:05:26.000Z,75.80
2023-04-21T10:07:53.260Z,76.30
2023-04-21T10:10:26.072Z,76.30
2023-04-21T10:12:53.405Z,76.20
2023-04-21T10:15:34.470Z,76.40
2023-04-21T10:18:16.404Z,77.90
2023-04-21T10:21:03.145Z,76.80
2023-04-21T10:23:30.915Z,76.50
2023-04-21T10:26:36.943Z,75.50
2023-04-21T10:29:07.769Z,74.80
2023-04-21T10:31:42.863Z,75.30
2023-04-21T10:34:09.772Z,73.80
2023-04-21T10:36:48.380Z,74.60
2023-04-21T10:39:57.819Z,73.70
2023-04-21T10:42:34.317Z,73.90
2023-04-21T10:45:05.625Z,74.00
2023-04-21T10:47:41.178Z,74.40
2023-04-21T10:50:16.703Z,73.40
2023-04-21T10:52:58.616Z,72.50
2023-04-21T10:55:30.077Z,72.40
2023-04-21T10:57:57.900Z,72.10
2023-04-21T11:00:25.280Z,72.40
2023-04-21T11:03:03.611Z,72.20
2023-04-21T11:05:34.526Z,71.00
2023-04-21T11:08:13.946Z,70.50
2023-04-21T11:10:52.888Z,70.00
2023-04-21T11:13:27.656Z,70.70
2023-04-21T11:16:01.537Z,70.40
2023-04-21T11:18:40.466Z,70.10
2023-04-21T11:21:09.489Z,70.20
2023-04-21T11:26:03.478Z,70.20
2023-04-21T11:28:30.322Z,70.40
2023-04-21T11:30:57.165Z,69.70
2023-04-21T11:33:24.042Z,70.50
2023-04-21T11:35:51.648Z,70.90
2023-04-21T11:38:19.025Z,70.70
2023-04-21T11:40:47.434Z,68.90
2023-04-21T11:43:14.374Z,68.70
2023-04-21T11:45:42.006Z,68.30
2023-04-21T11:50:50.759Z,67.80
2023-04-21T11:53:17.819Z,66.20
2023-04-21T11:55:47.900Z,66.80
2023-04-21T11:58:16.502Z,68.00
2023-04-21T12:00:46.533Z,66.00
2023-04-21T12:03:14.068Z,65.10
2023-04-21T12:05:40.927Z,66.20
2023-04-21T12:08:14.704Z,66.90
2023-04-21T12:10:46.088Z,67.10
2023-04-21T12:13:13.183Z,67.90
2023-04-21T12:15:39.918Z,67.20
2023-04-21T12:18:13.391Z,67.30
2023-04-21T12:20:49.454Z,67.40
2023-04-21T12:23:16.418Z,67.30
2023-04-21T12:25:43.236Z,68.10
2023-04-21T12:30:39.989Z,66.80
2023-04-21T12:33:09.098Z,66.20
2023-04-21T12:35:36.014Z,66.30
2023-04-21T12:38:02.712Z,65.50
2023-04-21T12:40:29.501Z,65.50
2023-04-21T12:42:56.296Z,65.90
2023-04-21T12:45:23.051Z,65.80
2023-04-21T12:47:50.196Z,65.30
2023-04-21T12:50:16.950Z,65.10
2023-04-21T12:52:43.683Z,65.10
2023-04-21T12:55:10.512Z,65.10
2023-04-21T12:57:37.295Z,64.70
2023-04-21T13:00:04.380Z,66.10
2023-04-21T13:02:37.034Z,66.20
2023-04-21T13:05:04.990Z,66.50
2023-04-21T13:07:33.262Z,66.80
2023-04-21T13:10:00.368Z,66.30
2023-04-21T13:12:27.092Z,65.80
2023-04-21T13:14:54.070Z,65.60
2023-04-21T13:17:20.983Z,66.10
2023-04-21T13:19:47.855Z,65.90
2023-04-21T13:22:14.645Z,65.50
2023-04-21T13:24:41.434Z,65.90
2023-04-21T13:27:08.368Z,65.70
2023-04-21T13:29:35.992Z,65.80
2023-04-21T13:32:04.362Z,65.80
2023-04-21T13:34:33.597Z,66.00
2023-04-21T13:37:01.499Z,66.60
2023-04-21T13:39:28.199Z,66.60
2023-04-21T13:46:52.301Z,65.80
2023-04-21T13:49:19.367Z,65.10
2023-04-21T13:54:13.257Z,65.60
2023-04-21T13:56:40.146Z,65.80
2023-04-21T13:59:07.057Z,65.20
2023-04-21T14:01:33.861Z,65.40
2023-04-21T14:04:00.700Z,66.40
2023-04-21T14:06:27.941Z,66.60
2023-04-21T14:08:54.743Z,65.50
2023-04-21T14:14:07.650Z,65.80
2023-04-21T14:16:35.436Z,65.50
2023-04-21T14:19:02.307Z,65.80
2023-04-21T14:21:29.042Z,65.80
2023-04-21T14:23:55.767Z,66.20
2023-04-21T14:26:22.543Z,66.10
2023-04-21T14:28:50.778Z,66.80
2023-04-21T14:31:18.608Z,66.70
2023-04-21T14:38:42.739Z,65.80
2023-04-21T14:43:36.808Z,65.80
2023-04-21T14:46:03.869Z,66.10
2023-04-21T14:48:30.798Z,65.90
2023-04-21T14:51:00.572Z,65.60
2023-04-21T14:53:27.390Z,65.20
2023-04-21T14:55:54.870Z,65.70
2023-04-21T14:58:21.659Z,66.00
2023-04-21T15:00:48.498Z,65.80
2023-04-21T15:03:15.740Z,65.70
2023-04-21T15:08:10.157Z,64.60
2023-04-21T15:13:04.316Z,65.30
2023-04-21T15:15:31.067Z,65.60
2023-04-21T15:23:14.565Z,64.40
2023-04-21T15:25:42.577Z,64.30
2023-04-21T15:28:09.537Z,64.90
2023-04-21T15:30:36.464Z,64.90
2023-04-21T15:33:04.151Z,64.50
2023-04-21T15:37:58.221Z,64.70
2023-04-21T15:40:25.106Z,64.70
2023-04-21T15:42:51.794Z,64.50
2023-04-21T15:45:18.655Z,64.30
2023-04-21T15:47:45.582Z,64.50
2023-04-21T15:50:12.690Z,64.80
2023-04-21T15:52:43.197Z,64.90
2023-04-21T15:55:13.271Z,64.70
2023-04-21T15:57:40.184Z,65.00
2023-04-21T16:00:10.055Z,65.00
2023-04-21T16:02:37.225Z,65.00
2023-04-21T16:05:04.759Z,65.30
2023-04-21T16:07:31.830Z,65.30
2023-04-21T16:09:58.711Z,65.20
2023-04-21T16:12:25.723Z,65.30
2023-04-21T16:14:57.440Z,65.40
2023-04-21T16:17:27.794Z,65.50
2023-04-21T16:19:54.821Z,65.60
2023-04-21T16:22:21.578Z,65.80
2023-04-21T16:24:49.872Z,66.10
2023-04-21T16:27:16.763Z,65.80
2023-04-21T16:29:43.561Z,65.80
2023-04-21T16:32:10.455Z,65.70
2023-04-21T16:34:37.494Z,65.70
2023-04-21T16:37:04.534Z,66.30
2023-04-21T16:39:31.388Z,66.10
2023-04-21T16:41:58.182Z,66.40
2023-04-21T16:44:24.941Z,66.30
2023-04-21T16:46:51.880Z,66.50
2023-04-21T16:49:18.745Z,66.50
2023-04-21T16:51:45.521Z,66.50
2023-04-21T16:54:12.382Z,66.60
2023-04-21T16:56:39.427Z,66.60
2023-04-21T16:59:09.403Z,66.80
2023-04-21T17:01:36.173Z,66.80
2023-04-21T17:04:03.119Z,67.20
2023-04-21T17:06:30.355Z,66.90
2023-04-21T17:08:59.846Z,66.80
2023-04-21T17:11:27.782Z,67.00
2023-04-21T17:13:54.829Z,67.60
2023-04-21T17:16:21.628Z,67.20
2023-04-21T17:18:48.444Z,67.40
2023-04-21T17:21:15.264Z,67.50
2023-04-21T17:23:42.102Z,67.70
2023-04-21T17:26:11.611Z,67.60
2023-04-21T17:28:39.969Z,67.70
2023-04-21T17:31:15.224Z,68.00
2023-04-21T17:33:43.625Z,68.20
2023-04-21T17:36:10.378Z,68.20
2023-04-21T17:38:37.388Z,67.90
2023-04-21T17:41:06.765Z,68.30
2023-04-21T17:43:33.710Z,68.40
2023-04-21T17:46:00.583Z,68.70
2023-04-21T17:48:27.514Z,68.90
2023-04-21T17:50:54.361Z,69.00
2023-04-21T17:53:21.284Z,69.20
2023-04-21T17:55:48.020Z,69.30
2023-04-21T17:58:14.747Z,69.70
2023-04-21T18:00:41.508Z,69.80
2023-04-21T18:03:08.494Z,69.80
2023-04-21T18:05:35.692Z,70.30
2023-04-21T18:08:03.004Z,70.40
2023-04-21T18:10:30.160Z,70.70
2023-04-21T18:12:57.368Z,70.80
2023-04-21T18:15:24.277Z,71.00
2023-04-21T18:17:53.092Z,71.20
2023-04-21T18:20:20.157Z,71.40
2023-04-21T18:22:47.453Z,71.70
2023-04-21T18:25:14.828Z,71.80
2023-04-21T18:27:41.865Z,72.00
2023-04-21T18:30:09.620Z,72.10
2023-04-21T18:32:36.833Z,72.30
2023-04-21T18:35:05.283Z,72.50
2023-04-21T18:37:32.129Z,72.50
2023-04-21T18:39:59.018Z,72.80
2023-04-21T18:42:26.288Z,72.90
2023-04-21T18:44:56.304Z,72.90
2023-04-21T18:47:24.849Z,73.00
2023-04-21T18:49:52.651Z,73.10
2023-04-21T18:52:19.495Z,73.30
2023-04-21T18:54:46.234Z,73.50
2023-04-21T18:57:12.968Z,73.60
2023-04-21T18:59:39.770Z,73.70
2023-04-21T19:02:07.463Z,74.00
2023-04-21T19:04:34.656Z,74.00
2023-04-21T19:07:01.950Z,74.10
2023-04-21T19:09:28.824Z,74.00
2023-04-21T19:11:55.815Z,74.20
2023-04-21T19:14:22.702Z,74.20
2023-04-21T19:16:50.713Z,74.20
2023-04-21T19:19:19.343Z,74.10
2023-04-21T19:21:46.529Z,74.40
2023-04-21T19:24:13.375Z,74.60
2023-04-21T19:26:40.213Z,74.70
2023-04-21T19:29:11.570Z,74.90
2023-04-21T19:31:38.732Z,75.00
2023-04-21T19:34:05.665Z,75.20
2023-04-21T19:36:32.961Z,75.30
2023-04-21T19:38:59.864Z,75.30
2023-04-21T19:41:26.628Z,75.30
2023-04-21T19:43:53.364Z,75.40
2023-04-21T19:46:20.739Z,75.60
2023-04-21T19:48:47.611Z,75.50
2023-04-21T19:51:14.350Z,75.50
2023-04-21T19:53:41.173Z,75.50
2023-04-21T19:56:07.995Z,75.50
2023-04-21T19:58:40.818Z,75.50
2023-04-21T20:01:08.099Z,75.50
2023-04-21T20:03:35.324Z,75.60
2023-04-21T20:06:04.842Z,75.70
2023-04-21T20:08:31.834Z,75.80
2023-04-21T20:10:58.698Z,75.90
2023-04-21T20:13:25.645Z,75.80
2023-04-21T20:15:52.470Z,75.90
2023-04-21T20:18:19.448Z,75.80
2023-04-21T20:20:46.374Z,75.90
2023-04-21T20:23:13.171Z,76.00
2023-04-21T20:25:40.153Z,76.00
2023-04-21T20:28:06.957Z,76.00
2023-04-21T20:30:33.646Z,76.00
2023-04-21T20:33:00.565Z,76.30
2023-04-21T20:35:30.516Z,76.40
2023-04-21T20:40:25.236Z,76.40
2023-04-21T20:42:52.083Z,76.50
2023-04-21T20:45:19.688Z,76.60
2023-04-21T20:47:46.504Z,76.50
2023-04-21T20:50:13.440Z,76.60
2023-04-21T20:52:40.508Z,76.60
2023-04-21T20:55:07.431Z,76.70
2023-04-21T20:57:34.324Z,76.70
2023-04-21T21:00:01.112Z,76.80
2023-04-21T21:02:28.000Z,76.80
2023-04-21T21:04:54.968Z,77.00
2023-04-21T21:07:21.685Z,77.00
2023-04-21T21:09:48.459Z,77.10
2023-04-21T21:12:15.276Z,77.10
2023-04-21T21:14:42.175Z,77.20
2023-04-21T21:17:09.957Z,77.30
2023-04-21T21:19:37.056Z,77.50
2023-04-21T21:22:04.267Z,77.50
2023-04-21T21:24:31.007Z,77.50
2023-04-21T21:26:58.126Z,77.70
2023-04-21T21:29:25.235Z,77.60
2023-04-21T21:31:52.077Z,77.80
2023-04-21T21:34:18.789Z,78.10
2023-04-21T21:36:45.738Z,78.20
2023-04-21T21:39:12.456Z,78.40
2023-04-21T21:41:39.699Z,78.60
2023-04-21T21:44:07.657Z,78.90
2023-04-21T21:46:34.460Z,79.10
2023-04-21T21:49:01.256Z,79.40
2023-04-21T21:51:28.879Z,79.90
2023-04-21T21:53:55.707Z,80.20
2023-04-21T21:56:24.131Z,80.40
2023-04-21T21:58:51.121Z,80.60
2023-04-21T22:01:18.309Z,80.30
2023-04-21T22:03:45.407Z,80.00
2023-04-21T22:06:15.512Z,79.80
2023-04-21T22:08:43.638Z,79.40
2023-04-21T22:11:10.364Z,79.30
2023-04-21T22:13:37.298Z,79.30
2023-04-21T22:16:04.199Z,79.20
2023-04-21T22:18:31.007Z,79.20
2023-04-21T22:20:59.058Z,79.20
2023-04-21T22:23:25.991Z,79.30
2023-04-21T22:25:52.749Z,79.20
2023-04-21T22:28:19.472Z,79.20
2023-04-21T22:30:46.437Z,79.50
2023-04-21T22:33:13.440Z,80.10
2023-04-21T22:35:40.520Z,80.90
2023-04-21T22:38:07.280Z,81.00
2023-04-21T22:40:34.238Z,80.90
2023-04-21T22:43:01.082Z,81.00
2023-04-21T22:45:28.044Z,81.40
2023-04-21T22:47:56.128Z,82.10
2023-04-21T22:50:23.009Z,82.50
2023-04-21T22:52:49.826Z,83.10
2023-04-21T22:55:16.511Z,83.20
2023-04-21T22:57:43.318Z,83.90
2023-04-21T23:00:11.101Z,84.30
2023-04-21T23:02:38.072Z,84.90
2023-04-21T23:05:05.521Z,85.50
2023-04-21T23:07:32.331Z,85.50
2023-04-21T23:09:59.249Z,86.20
2023-04-21T23:12:26.196Z,87.20
2023-04-21T23:14:53.299Z,87.50
2023-04-21T23:17:20.106Z,88.00
2023-04-21T23:19:46.872Z,88.50
2023-04-21T23:22:13.615Z,89.00
2023-04-21T23:24:40.367Z,90.10
2023-04-21T23:27:07.057Z,90.70
2023-04-21T23:29:33.902Z,90.70
2023-04-21T23:32:00.746Z,91.40
2023-04-21T23:34:27.737Z,91.80
2023-04-21T23:36:54.451Z,91.80
2023-04-21T23:39:22.452Z,92.70
2023-04-21T23:41:49.657Z,93.10
2023-04-21T23:44:16.380Z,93.10
2023-04-21T23:46:43.110Z,94.00
2023-04-21T23:49:09.864Z,94.30
2023-04-21T23:51:37.170Z,95.00
2023-04-21T23:54:03.991Z,95.50
2023-04-21T23:56:31.083Z,95.60
2023-04-21T23:58:58.380Z,95.70
